Time;durP1;ratioP1;P1;durP2;ratioP2;P2;SDS_P1;SDS_P2;PMS_P1;PMS_P2;Temp;Humidity;BMP_temperature;BMP_pressure;BME280_temperature;BME280_humidity;BME280_pressure;Samples;Min_cycle;Max_cycle;Signal;HPM_P1;HPM_P2
2022/01/03 00:02:00;;;;;;;1.88;0.50;;;8.30;99.90;;;;;;5113225;28;20047;-79
2022/01/03 00:04:27;;;;;;;6.65;1.73;;;8.30;99.90;;;;;;5107225;28;20039;-80
2022/01/03 00:06:54;;;;;;;2.88;0.93;;;8.30;99.90;;;;;;5110572;27;20047;-79
2022/01/03 00:09:20;;;;;;;4.43;1.13;;;8.30;99.90;;;;;;5097457;28;20054;-79
2022/01/03 00:11:47;;;;;;;3.03;0.60;;;8.30;99.90;;;;;;5110383;28;20051;-79
2022/01/03 00:14:13;;;;;;;5.13;0.93;;;8.20;99.90;;;;;;5102308;28;20047;-79
2022/01/03 00:16:40;;;;;;;4.80;0.80;;;8.20;99.90;;;;;;5100688;28;20168;-78
2022/01/03 00:19:06;;;;;;;9.43;1.92;;;8.20;99.90;;;;;;5108935;28;20402;-79
2022/01/03 00:21:33;;;;;;;3.05;1.10;;;8.20;99.90;;;;;;5108716;28;20061;-79
2022/01/03 00:23:59;;;;;;;4.68;1.60;;;8.20;99.90;;;;;;5110202;28;20060;-79
2022/01/03 00:26:26;;;;;;;2.90;1.27;;;8.20;99.90;;;;;;5106155;28;20414;-79
2022/01/03 00:28:52;;;;;;;8.57;1.95;;;8.40;99.90;;;;;;5104590;28;20043;-79
2022/01/03 00:31:19;;;;;;;4.97;1.98;;;8.30;99.90;;;;;;5104430;28;20044;-80
2022/01/03 00:33:45;;;;;;;3.05;1.00;;;8.40;99.90;;;;;;5114959;28;20048;-79
2022/01/03 00:36:12;;;;;;;5.18;1.73;;;8.40;99.90;;;;;;5109343;28;20046;-80
2022/01/03 00:38:39;;;;;;;6.78;1.75;;;8.50;99.90;;;;;;5107910;28;20055;-80
2022/01/03 00:41:05;;;;;;;8.18;2.17;;;8.50;99.90;;;;;;5113822;28;20058;-80
2022/01/03 00:43:32;;;;;;;5.72;2.10;;;8.50;99.90;;;;;;5131191;28;20051;-80
2022/01/03 00:45:58;;;;;;;10.30;2.15;;;8.60;99.90;;;;;;5095469;28;20139;-80
2022/01/03 00:48:25;;;;;;;7.72;2.90;;;8.60;99.90;;;;;;5122977;28;20051;-80
2022/01/03 00:50:51;;;;;;;3.97;1.80;;;8.60;99.90;;;;;;5121877;28;20051;-79
2022/01/03 00:53:19;;;;;;;14.75;3.13;;;8.70;99.90;;;;;;5103051;28;20099;-80
2022/01/03 00:55:45;;;;;;;10.43;3.40;;;8.70;99.90;;;;;;5104016;28;20044;-80
2022/01/03 00:58:12;;;;;;;6.32;2.75;;;8.80;99.90;;;;;;5125681;28;20043;-79
2022/01/03 01:00:38;;;;;;;15.63;2.70;;;8.80;99.90;;;;;;5098409;28;20052;-79
2022/01/03 01:03:05;;;;;;;6.68;2.85;;;8.80;99.90;;;;;;5104592;27;20058;-80
2022/01/03 01:05:31;;;;;;;6.50;2.70;;;8.90;99.90;;;;;;5103947;27;20047;-79
2022/01/03 01:07:58;;;;;;;7.80;3.10;;;9.00;99.90;;;;;;5129937;27;20055;-79
2022/01/03 01:10:24;;;;;;;15.52;4.18;;;9.00;99.90;;;;;;5109951;27;20043;-81
2022/01/03 01:12:51;;;;;;;11.38;3.33;;;9.00;99.90;;;;;;5123012;27;20074;-80
2022/01/03 01:15:17;;;;;;;10.88;2.63;;;9.00;99.90;;;;;;5112558;27;20054;-80
2022/01/03 01:17:45;;;;;;;16.67;3.75;;;9.00;99.90;;;;;;5124541;27;20043;-80
2022/01/03 01:20:15;;;;;;;21.45;4.03;;;9.10;99.90;;;;;;5113515;27;20051;-80
2022/01/03 01:22:41;;;;;;;16.65;4.18;;;9.20;99.90;;;;;;5099391;28;20055;-80
2022/01/03 01:25:26;;;;;;;10.90;2.67;;;9.10;99.90;;;;;;5107971;27;20043;-80
2022/01/03 01:27:53;;;;;;;16.13;4.00;;;9.20;99.90;;;;;;5115820;27;20051;-80
2022/01/03 01:30:20;;;;;;;15.23;3.25;;;9.30;99.90;;;;;;5115511;27;20126;-80
2022/01/03 01:32:46;;;;;;;12.27;3.10;;;9.30;99.90;;;;;;5116078;27;20043;-80
2022/01/03 01:35:13;;;;;;;9.35;3.35;;;9.40;99.90;;;;;;5112580;27;20043;-80
2022/01/03 01:37:39;;;;;;;13.57;3.40;;;9.40;99.90;;;;;;5112551;27;20055;-80
2022/01/03 01:40:06;;;;;;;22.73;4.30;;;9.30;99.90;;;;;;5120480;27;20082;-79
2022/01/03 01:42:32;;;;;;;10.35;2.50;;;9.30;99.90;;;;;;5107186;27;20383;-80
2022/01/03 01:44:59;;;;;;;15.85;3.85;;;9.30;99.90;;;;;;5129494;27;20047;-80
2022/01/03 01:47:26;;;;;;;16.10;4.60;;;9.30;99.90;;;;;;5106054;28;20051;-79
2022/01/03 01:49:52;;;;;;;15.60;4.18;;;9.30;99.90;;;;;;5103458;27;20482;-80
2022/01/03 01:52:19;;;;;;;12.85;3.85;;;9.30;99.90;;;;;;5101842;27;20047;-79
2022/01/03 01:54:45;;;;;;;18.35;3.45;;;9.40;99.90;;;;;;5104443;28;20052;-80
2022/01/03 01:57:12;;;;;;;16.67;4.25;;;9.30;99.90;;;;;;5097937;27;20050;-80
2022/01/03 01:59:38;;;;;;;9.70;3.17;;;9.30;99.90;;;;;;5123349;27;20047;-80
2022/01/03 02:02:05;;;;;;;16.77;4.43;;;9.30;99.90;;;;;;5115284;27;20051;-80
2022/01/03 02:04:31;;;;;;;14.10;3.58;;;9.30;99.90;;;;;;5115844;27;20075;-79
2022/01/03 02:06:58;;;;;;;28.30;3.55;;;9.30;99.90;;;;;;5107743;27;20055;-79
2022/01/03 02:09:24;;;;;;;21.33;4.85;;;9.30;99.90;;;;;;5098585;28;20047;-79
2022/01/03 02:11:51;;;;;;;25.65;5.18;;;9.30;99.90;;;;;;5096075;28;20051;-80
2022/01/03 02:14:17;;;;;;;13.10;4.15;;;9.30;99.90;;;;;;5107329;28;20051;-80
2022/01/03 02:16:44;;;;;;;16.10;3.78;;;9.30;99.90;;;;;;5098008;27;20062;-79
2022/01/03 02:19:11;;;;;;;16.70;4.15;;;9.30;99.90;;;;;;5109861;28;20059;-80
2022/01/03 02:21:37;;;;;;;18.92;4.10;;;9.30;99.90;;;;;;5122328;27;20047;-79
2022/01/03 02:24:04;;;;;;;19.92;3.55;;;9.30;99.90;;;;;;5105340;27;20051;-79
2022/01/03 02:26:30;;;;;;;12.95;4.00;;;9.30;99.90;;;;;;5103838;27;20059;-81
2022/01/03 02:28:57;;;;;;;22.08;4.85;;;9.30;99.90;;;;;;5115204;27;20043;-80
2022/01/03 02:31:23;;;;;;;18.13;3.88;;;9.40;99.90;;;;;;5107505;27;20043;-80
2022/01/03 02:33:50;;;;;;;23.23;4.72;;;9.30;99.90;;;;;;5102194;28;20050;-80
2022/01/03 02:36:16;;;;;;;14.50;4.35;;;9.30;99.90;;;;;;5106136;27;20054;-80
2022/01/03 02:38:43;;;;;;;17.50;4.97;;;9.30;99.90;;;;;;5124839;27;20047;-81
2022/01/03 02:41:09;;;;;;;16.73;4.75;;;9.30;99.90;;;;;;5105742;28;20047;-80
2022/01/03 02:43:36;;;;;;;32.47;4.45;;;9.30;99.90;;;;;;5121767;27;20059;-80
2022/01/03 02:46:02;;;;;;;24.52;4.45;;;9.40;99.90;;;;;;5113839;27;20092;-80
2022/01/03 02:48:29;;;;;;;16.02;4.40;;;9.40;99.90;;;;;;5099922;28;20058;-80
2022/01/03 02:50:56;;;;;;;11.90;4.53;;;9.40;99.90;;;;;;5109159;27;20055;-80
2022/01/03 02:53:22;;;;;;;22.20;4.50;;;9.40;99.90;;;;;;5123975;27;20043;-80
2022/01/03 02:55:49;;;;;;;32.75;6.72;;;9.40;99.90;;;;;;5096409;28;20055;-81
2022/01/03 02:58:15;;;;;;;20.27;5.10;;;9.50;99.90;;;;;;5095271;28;20054;-80
2022/01/03 03:00:45;;;;;;;17.58;4.78;;;9.40;99.90;;;;;;5125242;27;20043;-79
2022/01/03 03:03:11;;;;;;;23.67;4.68;;;9.40;99.90;;;;;;5110770;27;20050;-80
2022/01/03 03:05:38;;;;;;;23.85;4.63;;;9.50;99.90;;;;;;5099996;27;20043;-81
2022/01/03 03:08:04;;;;;;;22.67;4.57;;;9.50;99.90;;;;;;5106572;27;20053;-80
2022/01/03 03:10:31;;;;;;;25.63;5.47;;;9.40;99.90;;;;;;5099202;28;20054;-79
2022/01/03 03:12:57;;;;;;;16.05;4.00;;;9.60;99.90;;;;;;5103826;27;20062;-80
2022/01/03 03:15:24;;;;;;;19.88;5.25;;;9.50;99.90;;;;;;5112960;27;20050;-80
2022/01/03 03:17:50;;;;;;;25.90;5.25;;;9.50;99.90;;;;;;5113386;27;20062;-81
2022/01/03 03:20:17;;;;;;;18.27;4.28;;;9.50;99.90;;;;;;5103244;28;20071;-80
2022/01/03 03:22:44;;;;;;;19.67;5.13;;;9.50;99.90;;;;;;5103009;27;20035;-81
2022/01/03 03:25:10;;;;;;;27.08;4.43;;;9.50;99.90;;;;;;5101193;27;20455;-80
2022/01/03 03:27:42;;;;;;;20.65;4.82;;;9.50;99.90;;;;;;5110592;27;20469;-81
2022/01/03 03:30:09;;;;;;;19.85;4.95;;;9.40;99.90;;;;;;5104171;27;20054;-80
2022/01/03 03:32:35;;;;;;;28.58;5.57;;;9.50;99.90;;;;;;5101365;28;20052;-81
2022/01/03 03:35:02;;;;;;;18.58;4.60;;;9.50;99.90;;;;;;5103801;27;20043;-80
2022/01/03 03:37:29;;;;;;;21.45;5.85;;;9.40;99.90;;;;;;5098700;27;20043;-80
2022/01/03 03:39:55;;;;;;;28.05;6.10;;;9.50;99.90;;;;;;5110830;27;20051;-80
2022/01/03 03:42:22;;;;;;;15.38;4.55;;;9.50;99.90;;;;;;5118524;27;20043;-80
2022/01/03 03:44:48;;;;;;;17.45;4.15;;;9.60;99.90;;;;;;5105297;27;20103;-79
2022/01/03 03:47:15;;;;;;;23.67;4.65;;;9.50;99.90;;;;;;5126391;27;20046;-80
2022/01/03 03:49:41;;;;;;;14.57;4.43;;;9.50;99.90;;;;;;5107470;27;20043;-80
2022/01/03 03:52:08;;;;;;;27.92;5.22;;;9.40;99.90;;;;;;5124459;27;20058;-79
2022/01/03 03:54:34;;;;;;;30.15;5.35;;;9.40;99.90;;;;;;5100524;28;20051;-79
2022/01/03 03:57:01;;;;;;;22.20;4.85;;;9.40;99.90;;;;;;5104417;28;20044;-79
2022/01/03 03:59:27;;;;;;;21.75;5.38;;;9.30;99.90;;;;;;5104362;27;20054;-79
2022/01/03 04:01:54;;;;;;;17.00;3.97;;;9.30;99.90;;;;;;5096967;28;20056;-79
2022/01/03 04:04:20;;;;;;;18.45;4.35;;;9.30;99.90;;;;;;5104475;28;20380;-79
2022/01/03 04:06:47;;;;;;;14.68;4.38;;;9.40;99.90;;;;;;5106849;28;20051;-80
2022/01/03 04:09:13;;;;;;;17.30;5.03;;;9.30;99.90;;;;;;5105329;28;20043;-80
2022/01/03 04:11:40;;;;;;;23.20;5.28;;;9.30;99.90;;;;;;5104483;28;20394;-80
2022/01/03 04:14:06;;;;;;;24.35;6.03;;;9.30;99.90;;;;;;5096270;28;20112;-80
2022/01/03 04:16:33;;;;;;;17.77;5.38;;;9.30;99.90;;;;;;5100433;28;20406;-81
2022/01/03 04:19:00;;;;;;;18.40;4.35;;;9.30;99.90;;;;;;5112222;28;20062;-80
2022/01/03 04:21:26;;;;;;;35.80;5.03;;;9.30;99.90;;;;;;5103191;28;20066;-80
2022/01/03 04:23:53;;;;;;;22.70;4.13;;;9.20;99.90;;;;;;5093155;28;20151;-80
2022/01/03 04:26:19;;;;;;;15.57;5.70;;;9.20;99.90;;;;;;5100122;28;20053;-80
2022/01/03 04:28:46;;;;;;;15.45;4.65;;;9.20;99.90;;;;;;5115874;28;20045;-79
2022/01/03 04:31:12;;;;;;;35.53;5.30;;;9.10;99.90;;;;;;5101658;28;20051;-80
2022/01/03 04:33:39;;;;;;;22.40;4.65;;;9.20;99.90;;;;;;5099320;28;20057;-80
2022/01/03 04:36:06;;;;;;;28.90;4.25;;;9.10;99.90;;;;;;5113930;27;20100;-80
2022/01/03 04:38:32;;;;;;;29.13;6.78;;;9.10;99.90;;;;;;5100611;28;20060;-80
2022/01/03 04:40:59;;;;;;;18.95;5.32;;;9.10;99.90;;;;;;5119115;27;20082;-80
2022/01/03 04:43:25;;;;;;;32.10;6.85;;;9.10;99.90;;;;;;5125588;27;20047;-79
2022/01/03 04:45:52;;;;;;;20.63;4.53;;;9.10;99.90;;;;;;5105710;27;20043;-80
2022/01/03 04:48:19;;;;;;;23.88;5.50;;;9.00;99.90;;;;;;5109048;27;20055;-80
2022/01/03 04:50:45;;;;;;;16.33;5.10;;;9.10;99.90;;;;;;5124243;27;20082;-80
2022/01/03 04:53:12;;;;;;;28.73;5.10;;;9.20;99.90;;;;;;5122337;27;20051;-80
2022/01/03 04:55:38;;;;;;;21.50;5.30;;;9.20;99.90;;;;;;5106963;27;20083;-79
2022/01/03 04:58:05;;;;;;;25.85;6.60;;;9.20;99.90;;;;;;5110136;27;20051;-80
2022/01/03 05:00:31;;;;;;;23.92;5.13;;;9.30;99.90;;;;;;5104963;28;20044;-80
2022/01/03 05:02:58;;;;;;;24.52;6.20;;;9.20;99.90;;;;;;5097983;27;20047;-80
2022/01/03 05:05:24;;;;;;;28.15;5.70;;;9.20;99.90;;;;;;5100194;28;20059;-79
2022/01/03 05:07:51;;;;;;;22.88;5.47;;;9.20;99.90;;;;;;5101047;27;20055;-80
2022/01/03 05:10:18;;;;;;;22.85;5.00;;;9.30;99.90;;;;;;5117116;27;20063;-80
2022/01/03 05:12:44;;;;;;;23.45;5.82;;;9.30;99.90;;;;;;5110683;27;20129;-81
2022/01/03 05:15:11;;;;;;;25.52;5.35;;;9.30;99.90;;;;;;5121215;27;20035;-78
2022/01/03 05:17:37;;;;;;;18.20;5.25;;;9.40;99.90;;;;;;5116712;27;20478;-80
2022/01/03 05:20:04;;;;;;;31.17;7.07;;;9.30;99.90;;;;;;5106786;27;20048;-80
2022/01/03 05:22:30;;;;;;;22.38;6.03;;;9.30;99.90;;;;;;5108931;27;20104;-80
2022/01/03 05:24:57;;;;;;;22.33;5.63;;;9.20;99.90;;;;;;5099946;28;20250;-80
2022/01/03 05:27:23;;;;;;;24.63;4.93;;;9.30;99.90;;;;;;5124946;27;20134;-79
2022/01/03 05:29:50;;;;;;;41.08;6.93;;;9.30;99.90;;;;;;5107731;27;20050;-80
2022/01/03 05:32:16;;;;;;;37.90;7.80;;;9.30;99.90;;;;;;5099770;28;20043;-80
2022/01/03 05:34:43;;;;;;;38.78;7.85;;;9.20;99.90;;;;;;5122406;27;20058;-80
2022/01/03 05:37:10;;;;;;;29.40;5.35;;;9.20;99.90;;;;;;5107793;28;20039;-79
2022/01/03 05:39:36;;;;;;;23.95;6.00;;;9.20;99.90;;;;;;5100201;28;20486;-79
2022/01/03 05:42:03;;;;;;;36.25;6.13;;;9.30;99.90;;;;;;5103417;28;20475;-79
2022/01/03 05:44:29;;;;;;;28.33;5.65;;;9.30;99.90;;;;;;5098732;27;20406;-80
2022/01/03 05:46:56;;;;;;;33.38;5.90;;;9.20;99.90;;;;;;5103411;28;20475;-79
2022/01/03 05:49:22;;;;;;;31.17;7.65;;;9.20;99.90;;;;;;5100923;28;20051;-78
2022/01/03 05:51:49;;;;;;;22.50;5.88;;;9.20;99.90;;;;;;5107029;28;20487;-81
2022/01/03 05:54:15;;;;;;;30.40;6.75;;;9.20;99.90;;;;;;5126407;27;20047;-79
2022/01/03 05:56:42;;;;;;;28.38;6.57;;;9.30;99.90;;;;;;5103686;28;20055;-79
2022/01/03 05:59:08;;;;;;;22.67;6.10;;;9.30;99.90;;;;;;5105326;27;20526;-79
2022/01/03 06:01:35;;;;;;;23.48;6.82;;;9.30;99.90;;;;;;5100854;28;20044;-80
2022/01/03 06:04:12;;;;;;;26.65;5.65;;;9.30;99.90;;;;;;5118116;27;20043;-80
2022/01/03 06:09:29;;;;;;;15.15;5.35;;;9.20;99.90;;;;;;5133521;27;1269006;-80
2022/01/03 06:11:56;;;;;;;28.27;6.88;;;9.20;99.90;;;;;;5150644;27;20046;-79
2022/01/03 06:14:23;;;;;;;29.20;6.97;;;9.20;99.90;;;;;;5146355;27;20051;-79
2022/01/03 06:16:49;;;;;;;24.10;6.95;;;9.20;99.90;;;;;;5169723;27;20057;-80
2022/01/03 06:19:16;;;;;;;23.92;6.53;;;9.20;99.90;;;;;;5144796;27;20500;-80
2022/01/03 06:21:42;;;;;;;31.25;6.07;;;9.20;99.90;;;;;;5132389;27;20378;-80
2022/01/03 06:24:09;;;;;;;24.25;5.38;;;9.20;99.90;;;;;;5132020;27;20409;-78
2022/01/03 06:26:35;;;;;;;25.23;6.03;;;9.20;99.90;;;;;;5137577;27;20059;-78
2022/01/03 06:29:02;;;;;;;22.02;6.72;;;9.20;99.90;;;;;;5146167;27;20047;-80
2022/01/03 06:31:29;;;;;;;32.60;7.20;;;9.10;99.90;;;;;;5150031;27;20050;-79
2022/01/03 06:33:56;;;;;;;24.13;5.63;;;9.10;99.90;;;;;;5169923;27;20512;-80
2022/01/03 06:36:22;;;;;;;30.10;6.22;;;9.10;99.90;;;;;;5135053;27;20051;-80
2022/01/03 06:38:49;;;;;;;25.90;6.53;;;9.10;99.90;;;;;;5152192;27;20069;-79
2022/01/03 06:41:15;;;;;;;37.47;7.40;;;9.10;99.90;;;;;;5150048;27;20653;-80
2022/01/03 06:43:42;;;;;;;39.95;7.40;;;9.10;99.90;;;;;;5143210;27;20050;-80
2022/01/03 06:46:08;;;;;;;22.48;5.38;;;9.10;99.90;;;;;;5133043;27;20050;-79
2022/01/03 06:48:35;;;;;;;37.45;7.80;;;9.10;99.90;;;;;;5166155;27;20043;-79
2022/01/03 06:51:01;;;;;;;32.85;8.18;;;9.10;99.90;;;;;;5145157;27;20047;-80
2022/01/03 06:53:28;;;;;;;26.17;7.38;;;9.20;99.90;;;;;;5137430;27;20042;-80
2022/01/03 06:55:54;;;;;;;20.95;6.45;;;9.20;99.90;;;;;;5140301;27;20051;-78
2022/01/03 06:58:21;;;;;;;17.38;7.47;;;9.20;99.90;;;;;;5131932;27;20059;-80
2022/01/03 07:00:47;;;;;;;14.48;5.40;;;9.20;99.90;;;;;;5145972;27;20526;-79
2022/01/03 07:03:14;;;;;;;27.15;5.57;;;9.20;99.90;;;;;;5147065;27;20822;-79
2022/01/03 07:05:40;;;;;;;26.17;6.07;;;9.20;99.90;;;;;;5167901;27;20492;-79
2022/01/03 07:08:07;;;;;;;33.42;6.72;;;9.10;99.90;;;;;;5146619;27;20885;-79
2022/01/03 07:10:33;;;;;;;33.53;6.70;;;9.10;99.90;;;;;;5167203;27;20042;-79
2022/01/03 07:13:01;;;;;;;33.15;7.50;;;9.20;99.90;;;;;;5149517;27;20046;-79
2022/01/03 07:20:56;;;;;;;26.35;6.97;;;9.20;99.90;;;;;;5132309;27;20133;-79
2022/01/03 07:23:22;;;;;;;26.02;7.35;;;9.20;99.90;;;;;;5150826;27;20490;-79
2022/01/03 07:25:49;;;;;;;22.92;6.35;;;9.20;99.90;;;;;;5123376;27;20050;-78
2022/01/03 07:28:16;;;;;;;27.70;6.93;;;9.10;99.90;;;;;;5152298;27;20241;-78
2022/01/03 07:30:42;;;;;;;33.53;7.50;;;9.20;99.90;;;;;;5131861;27;20394;-79
2022/01/03 07:33:09;;;;;;;29.65;6.32;;;9.20;99.90;;;;;;5149587;27;20046;-79
2022/01/03 07:35:35;;;;;;;37.45;7.28;;;9.20;99.90;;;;;;5124291;27;20061;-79
2022/01/03 07:38:02;;;;;;;25.15;6.18;;;9.10;99.90;;;;;;5130238;27;20057;-79
2022/01/03 07:40:29;;;;;;;29.70;7.88;;;9.10;99.90;;;;;;5132015;27;20047;-79
2022/01/03 07:42:56;;;;;;;33.40;6.38;;;9.10;99.90;;;;;;5149721;27;20050;-79
2022/01/03 07:45:22;;;;;;;29.38;7.78;;;9.20;99.90;;;;;;5130828;27;20047;-80
2022/01/03 07:47:49;;;;;;;18.98;5.45;;;9.20;99.90;;;;;;5130791;27;20039;-80
2022/01/03 07:50:15;;;;;;;38.22;7.15;;;9.20;99.90;;;;;;5131744;27;20047;-80
2022/01/03 07:52:42;;;;;;;28.65;6.47;;;9.30;99.90;;;;;;5133299;27;20404;-80
2022/01/03 07:55:08;;;;;;;42.83;6.72;;;9.20;99.90;;;;;;5131634;27;20039;-80
2022/01/03 07:57:35;;;;;;;25.35;6.55;;;9.30;99.90;;;;;;5133381;27;20509;-80
2022/01/03 08:00:01;;;;;;;28.10;6.85;;;9.30;99.90;;;;;;5152615;27;20050;-80
2022/01/03 08:02:28;;;;;;;30.27;6.72;;;9.30;99.90;;;;;;5135563;27;20065;-80
2022/01/03 08:04:55;;;;;;;28.33;6.65;;;9.30;99.90;;;;;;5151509;27;20042;-80
2022/01/03 08:07:21;;;;;;;29.55;6.30;;;9.30;99.90;;;;;;5131297;27;20513;-80
2022/01/03 08:09:48;;;;;;;30.17;6.95;;;9.30;99.90;;;;;;5153095;27;20512;-80
2022/01/03 08:12:16;;;;;;;30.85;6.60;;;9.30;99.90;;;;;;5134452;27;20050;-80
2022/01/03 08:14:43;;;;;;;34.88;6.25;;;9.30;99.90;;;;;;5133213;27;20042;-80
2022/01/03 08:17:09;;;;;;;26.50;6.07;;;9.40;99.90;;;;;;5133467;27;20051;-80
2022/01/03 08:19:36;;;;;;;24.05;6.60;;;9.40;99.90;;;;;;5153256;27;20042;-81
2022/01/03 08:22:03;;;;;;;31.60;8.85;;;9.40;99.90;;;;;;5152246;27;20038;-80
2022/01/03 08:24:29;;;;;;;26.88;5.82;;;9.40;99.90;;;;;;5133440;27;20043;-80
2022/01/03 08:26:56;;;;;;;27.17;6.20;;;9.40;99.90;;;;;;5131493;27;20057;-81
2022/01/03 08:29:22;;;;;;;26.95;5.97;;;9.40;99.90;;;;;;5131305;27;20039;-80
2022/01/03 08:31:49;;;;;;;28.55;5.32;;;9.40;99.90;;;;;;5134708;27;20054;-81
2022/01/03 08:34:15;;;;;;;25.80;5.07;;;9.40;99.90;;;;;;5131879;27;20039;-80
2022/01/03 08:36:42;;;;;;;25.33;6.47;;;9.40;99.90;;;;;;5152867;27;20042;-81
2022/01/03 08:39:09;;;;;;;36.40;7.97;;;9.40;99.90;;;;;;5152650;27;20039;-80
2022/01/03 08:41:35;;;;;;;28.10;7.18;;;9.40;99.90;;;;;;5151227;27;20047;-80
2022/01/03 08:44:02;;;;;;;32.80;6.78;;;9.40;99.90;;;;;;5151264;27;20389;-81
2022/01/03 08:46:28;;;;;;;29.40;6.70;;;9.40;99.90;;;;;;5149280;27;20046;-81
2022/01/03 08:48:56;;;;;;;23.55;4.78;;;9.40;99.90;;;;;;5151051;27;20050;-81
2022/01/03 08:51:22;;;;;;;30.15;5.43;;;9.40;99.90;;;;;;5150774;27;20061;-81
2022/01/03 08:53:49;;;;;;;19.63;4.88;;;9.40;99.90;;;;;;5133624;27;20046;-80
2022/01/03 08:56:15;;;;;;;30.55;6.43;;;9.50;99.90;;;;;;5134747;27;20493;-79
2022/01/03 08:58:42;;;;;;;22.48;5.88;;;9.50;99.90;;;;;;5133308;27;20402;-80
2022/01/03 09:01:08;;;;;;;31.75;6.93;;;9.50;99.90;;;;;;5131459;27;20046;-80
2022/01/03 09:03:35;;;;;;;28.75;7.38;;;9.60;99.90;;;;;;5150467;27;20481;-80
2022/01/03 09:06:01;;;;;;;23.92;5.80;;;9.60;99.90;;;;;;5130220;27;20055;-80
2022/01/03 09:08:28;;;;;;;29.45;5.82;;;9.60;99.90;;;;;;5128030;27;20485;-80
2022/01/03 09:10:56;;;;;;;28.98;6.53;;;9.60;99.90;;;;;;5129546;27;20055;-80
2022/01/03 09:13:22;;;;;;;20.15;5.70;;;9.60;99.90;;;;;;5128118;27;20505;-80
2022/01/03 09:15:49;;;;;;;27.52;6.22;;;9.60;99.90;;;;;;5127674;27;20043;-81
2022/01/03 09:18:15;;;;;;;23.55;5.88;;;9.70;99.90;;;;;;5127127;27;20510;-80
2022/01/03 09:20:42;;;;;;;24.08;5.93;;;9.70;99.90;;;;;;5126508;27;21343;-80
2022/01/03 09:23:12;;;;;;;21.70;5.75;;;9.70;99.90;;;;;;5123119;27;20137;-79
2022/01/03 09:31:07;;;;;;;30.67;6.20;;;9.80;99.90;;;;;;5126334;27;20125;-79
2022/01/03 09:33:34;;;;;;;22.90;5.07;;;9.80;99.90;;;;;;5123828;27;20506;-80
2022/01/03 09:36:00;;;;;;;28.67;6.18;;;9.80;99.90;;;;;;5122309;27;20058;-80
2022/01/03 09:38:27;;;;;;;28.60;5.05;;;9.80;99.90;;;;;;5123798;27;20047;-80
2022/01/03 09:40:54;;;;;;;31.80;6.80;;;9.80;99.90;;;;;;5123259;27;20065;-80
2022/01/03 09:43:20;;;;;;;21.50;4.70;;;9.80;99.90;;;;;;5117731;27;20074;-80
2022/01/03 09:45:47;;;;;;;21.92;5.00;;;9.80;99.90;;;;;;5120930;27;20055;-81
2022/01/03 09:48:14;;;;;;;19.17;5.60;;;9.80;99.90;;;;;;5110625;27;20057;-81
2022/01/03 09:50:40;;;;;;;25.42;5.18;;;9.80;99.90;;;;;;5121158;27;20051;-81
2022/01/03 09:53:07;;;;;;;30.10;6.70;;;9.80;99.90;;;;;;5112949;27;20047;-80
2022/01/03 09:55:33;;;;;;;26.38;7.03;;;9.90;99.90;;;;;;5113734;27;20035;-80
2022/01/03 09:58:00;;;;;;;23.42;4.47;;;9.80;99.90;;;;;;5123023;27;20661;-80
2022/01/03 10:00:27;;;;;;;16.40;5.00;;;9.80;99.90;;;;;;5123537;27;20375;-80
2022/01/03 10:02:53;;;;;;;23.38;5.63;;;9.90;99.90;;;;;;5126238;27;20146;-80
2022/01/03 10:05:20;;;;;;;24.27;5.22;;;9.90;99.90;;;;;;5121293;27;20051;-80
2022/01/03 10:07:46;;;;;;;26.45;6.18;;;9.90;99.90;;;;;;5118533;27;20608;-80
2022/01/03 10:10:13;;;;;;;17.52;4.90;;;9.90;99.90;;;;;;5128324;27;20501;-79
2022/01/03 10:12:39;;;;;;;20.80;4.70;;;9.90;99.90;;;;;;5125334;27;20050;-80
2022/01/03 10:15:06;;;;;;;26.15;6.07;;;10.00;99.90;;;;;;5142224;27;20412;-80
2022/01/03 10:17:32;;;;;;;26.27;5.03;;;10.00;99.90;;;;;;5125693;27;20487;-80
2022/01/03 10:20:00;;;;;;;15.55;4.55;;;10.00;99.90;;;;;;5130900;27;20050;-80
2022/01/03 10:22:26;;;;;;;24.80;5.82;;;10.00;99.90;;;;;;5132223;27;20405;-81
2022/01/03 10:24:53;;;;;;;23.50;5.25;;;10.00;99.90;;;;;;5123506;27;20663;-79
2022/01/03 10:27:19;;;;;;;24.90;6.25;;;10.10;99.90;;;;;;5137855;27;20047;-80
2022/01/03 10:29:46;;;;;;;24.90;7.00;;;10.20;99.90;;;;;;5132565;27;20496;-80
2022/01/03 10:32:12;;;;;;;23.77;5.18;;;10.20;99.90;;;;;;5143942;27;20051;-79
2022/01/03 10:34:39;;;;;;;28.35;5.38;;;10.20;99.90;;;;;;5133027;27;20050;-80
2022/01/03 10:37:06;;;;;;;22.63;7.78;;;10.30;99.90;;;;;;5125101;27;20059;-80
2022/01/03 10:39:34;;;;;;;16.02;5.25;;;10.20;99.90;;;;;;5119315;27;20493;-80
2022/01/03 10:42:01;;;;;;;40.00;4.60;;;10.20;99.90;;;;;;5128889;27;20057;-80
2022/01/03 10:44:27;;;;;;;19.90;4.88;;;10.20;99.90;;;;;;5145141;27;20039;-81
2022/01/03 10:46:54;;;;;;;29.35;6.07;;;10.30;99.90;;;;;;5123692;27;20478;-80
2022/01/03 10:49:20;;;;;;;27.45;5.93;;;10.30;99.90;;;;;;5119620;28;20686;-81
2022/01/03 10:51:47;;;;;;;23.55;6.88;;;10.20;99.90;;;;;;5118403;27;20079;-80
2022/01/03 10:54:13;;;;;;;19.98;5.85;;;10.30;99.90;;;;;;5119237;27;20047;-80
2022/01/03 10:56:40;;;;;;;26.65;6.40;;;10.30;99.90;;;;;;5124526;27;20065;-81
2022/01/03 10:59:06;;;;;;;26.35;6.55;;;10.30;99.90;;;;;;5131015;27;20051;-80
2022/01/03 11:01:33;;;;;;;26.92;6.28;;;10.30;99.90;;;;;;5120869;27;20070;-80
2022/01/03 11:04:02;;;;;;;18.52;4.95;;;10.30;99.90;;;;;;5125057;27;20147;-80
2022/01/03 11:06:49;;;;;;;33.33;5.22;;;10.20;99.90;;;;;;5129883;27;20122;-80
2022/01/03 11:12:00;;;;;;;25.73;5.72;;;10.30;99.90;;;;;;5129004;27;20501;-80
2022/01/03 11:14:26;;;;;;;20.08;5.63;;;10.30;99.90;;;;;;5129446;27;20482;-81
2022/01/03 11:16:53;;;;;;;18.63;5.68;;;10.30;99.90;;;;;;5128095;27;20761;-81
2022/01/03 11:19:19;;;;;;;25.00;6.10;;;10.20;99.90;;;;;;5143534;27;20421;-80
2022/01/03 11:21:46;;;;;;;18.63;6.22;;;10.20;99.90;;;;;;5121411;27;20058;-80
2022/01/03 11:24:12;;;;;;;41.80;6.18;;;10.30;99.90;;;;;;5133533;27;20405;-80
2022/01/03 11:26:40;;;;;;;19.50;7.03;;;10.30;99.90;;;;;;5119087;27;20047;-80
2022/01/03 11:29:07;;;;;;;31.77;6.18;;;10.20;99.90;;;;;;5132269;27;20047;-80
2022/01/03 11:31:38;;;;;;;25.65;6.82;;;10.20;99.90;;;;;;5143837;27;20066;-80
2022/01/03 11:34:04;;;;;;;21.90;7.45;;;10.20;99.90;;;;;;5126805;27;20042;-79
2022/01/03 11:36:31;;;;;;;25.70;6.15;;;10.20;99.90;;;;;;5141618;27;20055;-80
2022/01/03 11:38:58;;;;;;;33.22;5.18;;;10.20;99.90;;;;;;5126650;27;20051;-80
2022/01/03 11:41:24;;;;;;;14.43;5.07;;;10.30;99.90;;;;;;5127848;27;20051;-80
2022/01/03 11:43:51;;;;;;;19.35;7.10;;;10.10;99.90;;;;;;5139410;27;20055;-80
2022/01/03 11:46:17;;;;;;;28.63;6.20;;;10.20;99.90;;;;;;5122466;27;20454;-80
2022/01/03 11:48:44;;;;;;;24.20;5.93;;;10.40;99.90;;;;;;5116562;27;20047;-80
2022/01/03 11:51:10;;;;;;;29.33;6.10;;;10.30;99.90;;;;;;5126835;27;20166;-80
2022/01/03 11:53:37;;;;;;;29.13;5.43;;;10.40;99.90;;;;;;5125249;27;20055;-80
2022/01/03 11:56:03;;;;;;;20.30;5.80;;;10.40;99.90;;;;;;5126830;27;20042;-81
2022/01/03 11:58:40;;;;;;;19.88;5.10;;;10.30;99.90;;;;;;5127546;27;20485;-80
2022/01/03 12:03:51;;;;;;;27.35;6.32;;;10.30;99.90;;;;;;5126661;27;20043;-80
2022/01/03 12:06:17;;;;;;;23.38;5.97;;;10.20;99.90;;;;;;5126660;27;20047;-80
2022/01/03 12:08:44;;;;;;;17.98;5.35;;;10.30;99.90;;;;;;5127329;27;20067;-80
2022/01/03 12:11:10;;;;;;;17.85;5.28;;;10.40;99.90;;;;;;5098623;28;20079;-80
2022/01/03 12:13:37;;;;;;;20.73;5.57;;;10.40;99.90;;;;;;5101160;28;20056;-81
2022/01/03 12:16:04;;;;;;;26.40;6.68;;;10.40;99.90;;;;;;5105218;28;20501;-81
2022/01/03 12:18:30;;;;;;;18.08;4.80;;;10.50;99.90;;;;;;5109392;28;20128;-80
2022/01/03 12:20:57;;;;;;;19.02;5.07;;;10.40;99.90;;;;;;5092004;28;20048;-81
2022/01/03 12:23:23;;;;;;;21.60;6.07;;;10.50;99.90;;;;;;5104199;28;20055;-80
2022/01/03 12:25:50;;;;;;;21.17;4.07;;;10.50;99.90;;;;;;5106794;28;20607;-80
2022/01/03 12:28:17;;;;;;;20.73;5.28;;;10.40;99.90;;;;;;5105523;28;20069;-80
2022/01/03 12:30:44;;;;;;;16.02;4.57;;;10.40;99.90;;;;;;5104885;28;20039;-80
2022/01/03 12:33:11;;;;;;;15.88;4.13;;;10.50;99.90;;;;;;5103677;28;20074;-80
2022/01/03 12:35:37;;;;;;;29.63;6.10;;;10.40;99.90;;;;;;5094298;28;20056;-81
2022/01/03 12:38:04;;;;;;;19.95;4.47;;;10.30;99.90;;;;;;5102557;28;20118;-81
2022/01/03 12:40:31;;;;;;;19.27;4.32;;;10.40;99.90;;;;;;5098071;28;20052;-79
2022/01/03 12:42:58;;;;;;;24.98;5.10;;;10.50;99.90;;;;;;5105680;28;20062;-81
2022/01/03 12:45:24;;;;;;;16.77;5.03;;;10.50;99.90;;;;;;5098373;28;20052;-80
2022/01/03 12:47:51;;;;;;;32.60;5.25;;;10.40;99.90;;;;;;5099991;28;20709;-81
2022/01/03 12:50:17;;;;;;;28.80;4.97;;;10.50;99.90;;;;;;5103467;28;20044;-80
2022/01/03 12:52:44;;;;;;;27.88;6.40;;;10.60;99.90;;;;;;5101105;28;20074;-78
2022/01/03 12:55:10;;;;;;;25.08;5.15;;;10.50;99.90;;;;;;5097287;28;20047;-80
2022/01/03 12:57:37;;;;;;;19.35;4.75;;;10.40;99.90;;;;;;5101710;28;20059;-81
2022/01/03 13:00:03;;;;;;;14.95;4.65;;;10.50;99.90;;;;;;5102729;28;20047;-80
2022/01/03 13:02:30;;;;;;;16.92;4.60;;;10.50;99.90;;;;;;5090173;28;20055;-80